Time;durP1;ratioP1;P1;durP2;ratioP2;P2;SDS_P1;SDS_P2;PMS_P1;PMS_P2;Temp;Humidity;BMP_temperature;BMP_pressure;BME280_temperature;BME280_humidity;BME280_pressure;Samples;Min_cycle;Max_cycle;Signal;HPM_P1;HPM_P2
2023/06/27 00:02:23;;;;;;;8.15;4.70;;;;;;;-140.66;100.00;55571.53;5117387;28;20047;-77
2023/06/27 00:05:09;;;;;;;5.50;4.45;;;;;;;-140.66;100.00;55571.53;5116976;28;20030;-78
2023/06/27 00:07:54;;;;;;;6.95;4.32;;;;;;;-140.66;100.00;55571.53;5115913;28;20388;-77
2023/06/27 00:10:40;;;;;;;7.28;4.72;;;;;;;-140.66;100.00;55571.53;5115928;28;20457;-78
2023/06/27 00:13:26;;;;;;;9.02;4.72;;;;;;;-140.66;100.00;55571.53;5117831;28;20449;-77
2023/06/27 00:16:15;;;;;;;7.88;4.75;;;;;;;-140.66;100.00;55571.53;5131416;27;20031;-77
2023/06/27 00:19:03;;;;;;;7.00;4.55;;;;;;;-140.66;100.00;55571.53;5115733;28;20097;-78
2023/06/27 00:21:49;;;;;;;7.35;4.53;;;;;;;-140.66;100.00;55571.53;5095875;28;20368;-78
2023/06/27 00:24:36;;;;;;;5.22;4.50;;;;;;;-140.66;100.00;55571.53;5116286;28;20111;-78
2023/06/27 00:27:22;;;;;;;7.18;4.55;;;;;;;-140.66;100.00;55571.53;5115467;28;20027;-78
2023/06/27 00:30:08;;;;;;;8.73;4.28;;;;;;;-140.66;100.00;55571.53;5116163;28;20373;-77
2023/06/27 00:32:57;;;;;;;6.50;4.22;;;;;;;-140.66;100.00;55571.53;5117350;28;20031;-77
2023/06/27 00:35:42;;;;;;;5.82;4.07;;;;;;;-140.66;100.00;55571.53;5115607;28;20430;-77
2023/06/27 00:38:28;;;;;;;5.70;4.20;;;;;;;-140.66;100.00;55571.53;5123578;28;20024;-78
2023/06/27 00:41:14;;;;;;;6.50;4.15;;;;;;;-140.66;100.00;55571.53;5123244;28;20031;-78
2023/06/27 00:44:00;;;;;;;6.13;4.15;;;;;;;-140.66;100.00;55571.53;5117270;28;20059;-78
2023/06/27 00:46:51;;;;;;;10.05;4.30;;;;;;;-140.66;100.00;55571.53;5117297;28;20024;-78
2023/06/27 00:49:37;;;;;;;6.70;4.43;;;;;;;-140.66;100.00;55571.53;5114991;28;20027;-77
2023/06/27 00:52:23;;;;;;;5.82;4.30;;;;;;;-140.66;100.00;55571.53;5115512;28;20064;-77
2023/06/27 00:55:09;;;;;;;7.68;4.43;;;;;;;-140.66;100.00;55571.53;5115607;28;20411;-77
2023/06/27 00:57:55;;;;;;;5.25;4.25;;;;;;;-140.66;100.00;55571.53;5115227;28;20429;-77
2023/06/27 01:00:40;;;;;;;5.55;4.20;;;;;;;-140.66;100.00;55571.53;5102354;28;20032;-77
2023/06/27 01:03:30;;;;;;;6.15;4.10;;;;;;;-140.66;100.00;55571.53;5101874;28;20122;-78
2023/06/27 01:06:22;;;;;;;10.00;4.38;;;;;;;-140.66;100.00;55571.53;5115531;28;20110;-78
2023/06/27 01:09:16;;;;;;;5.60;4.20;;;;;;;-140.66;100.00;55571.53;5100557;28;20043;-78
2023/06/27 01:12:37;;;;;;;6.30;4.18;;;;;;;-140.66;100.00;55571.53;5116163;28;20023;-78
2023/06/27 01:15:22;;;;;;;6.25;4.28;;;;;;;-140.66;100.00;55571.53;5114336;28;20338;-78
2023/06/27 01:18:11;;;;;;;6.28;4.38;;;;;;;-140.66;100.00;55571.53;5100522;28;20020;-78
2023/06/27 01:20:58;;;;;;;6.63;4.60;;;;;;;-140.66;100.00;55571.53;5099893;28;20074;-77
2023/06/27 01:23:55;;;;;;;8.43;4.82;;;;;;;-140.66;100.00;55571.53;5114220;28;20032;-78
2023/06/27 01:26:41;;;;;;;8.90;4.53;;;;;;;-140.66;100.00;55571.53;5114565;28;20392;-78
2023/06/27 01:29:29;;;;;;;7.93;4.75;;;;;;;-140.66;100.00;55571.53;5115266;28;20449;-77
2023/06/27 01:32:26;;;;;;;8.25;4.47;;;;;;;-140.66;100.00;55571.53;5100456;28;20031;-77
2023/06/27 01:35:27;;;;;;;5.43;4.55;;;;;;;-140.66;100.00;55571.53;5114618;28;20075;-77
2023/06/27 01:38:20;;;;;;;9.30;5.05;;;;;;;-140.66;100.00;55571.53;5114412;28;20016;-78
2023/06/27 01:41:09;;;;;;;6.60;4.80;;;;;;;-140.66;100.00;55571.53;5114490;28;20039;-77
2023/06/27 01:43:57;;;;;;;8.68;4.97;;;;;;;-140.66;100.00;55571.53;5115584;28;20106;-78
2023/06/27 01:46:43;;;;;;;9.10;5.30;;;;;;;-140.66;100.00;55571.53;5115174;28;20023;-78
2023/06/27 01:49:29;;;;;;;10.35;5.75;;;;;;;-140.66;100.00;55571.53;5114280;28;20346;-77
2023/06/27 01:52:15;;;;;;;7.43;4.95;;;;;;;-140.66;100.00;55571.53;5113899;28;20142;-77
2023/06/27 01:55:01;;;;;;;7.82;5.80;;;;;;;-140.66;100.00;55571.53;5114020;28;20024;-78
2023/06/27 01:57:46;;;;;;;7.63;5.32;;;;;;;-140.66;100.00;55571.53;5114661;28;20030;-79
2023/06/27 02:00:32;;;;;;;7.88;5.55;;;;;;;-140.66;100.00;55571.53;5099885;28;20096;-79
2023/06/27 02:03:18;;;;;;;7.75;4.85;;;;;;;-140.66;100.00;55571.53;5115033;28;20031;-78
2023/06/27 02:06:04;;;;;;;7.93;5.10;;;;;;;-140.66;100.00;55571.53;5100221;28;20042;-78
2023/06/27 02:08:50;;;;;;;6.22;5.50;;;;;;;-140.66;100.00;55571.53;5114086;28;20070;-78
2023/06/27 02:11:36;;;;;;;7.28;5.13;;;;;;;-140.66;100.00;55571.53;5114443;28;20110;-78
2023/06/27 02:14:21;;;;;;;8.77;5.43;;;;;;;-140.66;100.00;55571.53;5115874;28;20036;-78
2023/06/27 02:17:07;;;;;;;11.40;5.25;;;;;;;-140.66;100.00;55571.53;5117069;28;20023;-77
2023/06/27 02:19:53;;;;;;;10.20;5.53;;;;;;;-140.66;100.00;55571.53;5115914;28;20093;-78
2023/06/27 02:22:39;;;;;;;7.32;5.20;;;;;;;-140.66;100.00;55571.53;5114513;28;20089;-77
2023/06/27 02:25:24;;;;;;;11.43;5.45;;;;;;;-140.66;100.00;55571.53;5114640;28;20039;-77
2023/06/27 02:28:10;;;;;;;6.20;5.30;;;;;;;-140.66;100.00;55571.53;5113099;28;20518;-77
2023/06/27 02:30:56;;;;;;;9.55;5.68;;;;;;;-140.66;100.00;55571.53;5114481;28;20023;-78
2023/06/27 02:33:42;;;;;;;8.85;5.95;;;;;;;-140.66;100.00;55571.53;5113291;28;20032;-77
2023/06/27 02:36:28;;;;;;;9.80;5.57;;;;;;;-140.66;100.00;55571.53;5113190;28;20107;-77
2023/06/27 02:39:13;;;;;;;11.32;6.38;;;;;;;-140.66;100.00;55571.53;5113030;28;20024;-77
2023/06/27 02:41:59;;;;;;;9.57;6.40;;;;;;;-140.66;100.00;55571.53;5114496;28;20072;-77
2023/06/27 02:44:45;;;;;;;10.27;6.53;;;;;;;-140.66;100.00;55571.53;5114114;28;20030;-78
2023/06/27 02:47:31;;;;;;;9.18;6.47;;;;;;;-140.66;100.00;55571.53;5113884;28;20457;-77
2023/06/27 02:50:17;;;;;;;9.63;6.00;;;;;;;-140.66;100.00;55571.53;5113142;28;20148;-77
2023/06/27 02:53:02;;;;;;;12.52;6.65;;;;;;;-140.66;100.00;55571.53;5113101;28;20330;-77
2023/06/27 02:55:49;;;;;;;11.02;6.45;;;;;;;-140.66;100.00;55571.53;5099353;28;20307;-77
2023/06/27 02:58:35;;;;;;;12.15;7.05;;;;;;;-140.66;100.00;55571.53;5113508;28;20046;-77
2023/06/27 03:01:20;;;;;;;13.30;7.30;;;;;;;-140.66;100.00;55571.53;5113524;28;20027;-77
2023/06/27 03:04:09;;;;;;;9.80;7.20;;;;;;;-140.66;100.00;55571.53;5112954;28;20031;-77
2023/06/27 03:06:55;;;;;;;14.05;7.47;;;;;;;-140.66;100.00;55571.53;5113092;28;20368;-77
2023/06/27 03:09:41;;;;;;;11.60;7.63;;;;;;;-140.66;100.00;55571.53;5113266;28;20032;-77
2023/06/27 03:12:26;;;;;;;10.23;7.43;;;;;;;-140.66;100.00;55571.53;5113125;28;20023;-78
2023/06/27 03:15:12;;;;;;;11.40;8.25;;;;;;;-140.66;100.00;55571.53;5114845;28;20020;-78
2023/06/27 03:17:58;;;;;;;11.43;8.05;;;;;;;-140.66;100.00;55571.53;5112785;28;20028;-77
2023/06/27 03:20:44;;;;;;;11.75;7.88;;;;;;;-140.66;100.00;55571.53;5113345;28;20043;-77
2023/06/27 03:23:29;;;;;;;15.52;8.52;;;;;;;-140.66;100.00;55571.53;5115445;28;20123;-78
2023/06/27 03:26:15;;;;;;;11.63;7.55;;;;;;;-140.66;100.00;55571.53;5102581;28;20103;-78
2023/06/27 03:29:01;;;;;;;11.10;7.60;;;;;;;-140.66;100.00;55571.53;5102403;28;20071;-77
2023/06/27 03:31:46;;;;;;;16.15;8.65;;;;;;;-140.66;100.00;55571.53;5102465;28;20031;-77
2023/06/27 03:34:32;;;;;;;12.52;8.13;;;;;;;-140.66;100.00;55571.53;5118038;28;20020;-76
2023/06/27 03:37:19;;;;;;;10.15;7.55;;;;;;;-140.66;100.00;55571.53;5117010;28;20019;-77
2023/06/27 03:40:05;;;;;;;12.32;8.95;;;;;;;-140.66;100.00;55571.53;5120414;28;20070;-77
2023/06/27 03:42:51;;;;;;;14.57;8.60;;;;;;;-140.66;100.00;55571.53;5117339;28;20055;-76
2023/06/27 03:45:38;;;;;;;12.32;8.80;;;;;;;-140.66;100.00;55571.53;5116879;28;20019;-76
2023/06/27 03:48:24;;;;;;;12.13;8.70;;;;;;;-140.66;100.00;55571.53;5117019;28;20097;-77
2023/06/27 03:51:10;;;;;;;12.50;8.63;;;;;;;-140.66;100.00;55571.53;5118101;28;20076;-77
2023/06/27 03:53:55;;;;;;;17.00;9.45;;;;;;;-140.66;100.00;55571.53;5117372;28;20164;-77
2023/06/27 03:56:41;;;;;;;16.88;10.45;;;;;;;-140.66;100.00;55571.53;5123842;28;20023;-77
2023/06/27 03:59:27;;;;;;;12.23;8.60;;;;;;;-140.66;100.00;55571.53;5108645;28;20456;-77
2023/06/27 04:02:13;;;;;;;12.77;8.75;;;;;;;-140.66;100.00;55571.53;5123215;28;20415;-77
2023/06/27 04:04:58;;;;;;;14.07;9.05;;;;;;;-140.66;100.00;55571.53;5122104;28;20046;-77
2023/06/27 04:07:44;;;;;;;12.02;9.00;;;;;;;-140.66;100.00;55571.53;5123045;28;20035;-77
2023/06/27 04:10:30;;;;;;;11.45;8.73;;;;;;;-140.66;100.00;55571.53;5119580;28;20019;-78
2023/06/27 04:13:15;;;;;;;12.82;8.95;;;;;;;-140.66;100.00;55571.53;5118458;28;20070;-77
2023/06/27 04:16:01;;;;;;;13.52;8.88;;;;;;;-140.66;100.00;55571.53;5118385;28;20499;-79
2023/06/27 04:18:47;;;;;;;13.48;7.72;;;;;;;-140.66;100.00;55571.53;5118169;28;20055;-79
2023/06/27 04:21:33;;;;;;;11.52;8.68;;;;;;;-140.66;100.00;55571.53;5132351;28;20034;-76
2023/06/27 04:24:19;;;;;;;16.35;9.50;;;;;;;-140.66;100.00;55571.53;5128652;28;20103;-77
2023/06/27 04:27:08;;;;;;;12.02;8.23;;;;;;;-140.66;100.00;55571.53;5111960;28;20095;-75
2023/06/27 04:29:54;;;;;;;16.05;7.95;;;;;;;-140.66;100.00;55571.53;5126471;28;20051;-77
2023/06/27 04:32:40;;;;;;;13.30;9.35;;;;;;;-140.66;100.00;55571.53;5126788;28;20027;-76
2023/06/27 04:35:26;;;;;;;14.27;9.65;;;;;;;-140.66;100.00;55571.53;5121774;28;20038;-78
2023/06/27 04:38:14;;;;;;;14.45;9.00;;;;;;;-140.66;100.00;55571.53;5122672;28;20027;-77
2023/06/27 04:40:59;;;;;;;11.75;8.75;;;;;;;-140.66;100.00;55571.53;5121664;28;20080;-77
2023/06/27 04:43:45;;;;;;;11.90;7.65;;;;;;;-140.66;100.00;55571.53;5122697;28;20019;-76
2023/06/27 04:46:31;;;;;;;11.15;6.72;;;;;;;-140.66;100.00;55571.53;5118844;28;20056;-77
2023/06/27 04:49:17;;;;;;;11.95;6.50;;;;;;;-140.66;100.00;55571.53;5107637;28;20062;-77
2023/06/27 04:52:03;;;;;;;9.38;6.68;;;;;;;-140.66;100.00;55571.53;5119665;28;20031;-77
2023/06/27 04:54:50;;;;;;;13.13;6.15;;;;;;;-140.66;100.00;55571.53;5118624;28;20338;-77
2023/06/27 04:57:36;;;;;;;13.10;6.43;;;;;;;-140.66;100.00;55571.53;5116478;28;20016;-77
2023/06/27 05:00:22;;;;;;;10.57;6.07;;;;;;;-140.66;100.00;55571.53;5102318;28;20027;-78
2023/06/27 05:03:08;;;;;;;14.00;6.40;;;;;;;-140.66;100.00;55571.53;5100212;28;20038;-77
2023/06/27 05:05:53;;;;;;;11.05;6.38;;;;;;;-140.66;100.00;55571.53;5114785;28;20084;-77
2023/06/27 05:08:40;;;;;;;10.50;6.10;;;;;;;-140.66;100.00;55571.53;5102040;28;20133;-77
2023/06/27 05:11:25;;;;;;;12.35;6.30;;;;;;;-140.66;100.00;55571.53;5116352;28;20472;-76
2023/06/27 05:14:11;;;;;;;11.55;5.45;;;;;;;-140.66;100.00;55571.53;5119798;28;20042;-76
2023/06/27 05:16:57;;;;;;;11.85;6.72;;;;;;;-140.66;100.00;55571.53;5122231;28;20026;-78
2023/06/27 05:19:43;;;;;;;10.68;6.47;;;;;;;-140.66;100.00;55571.53;5123530;28;20477;-77
2023/06/27 05:22:28;;;;;;;11.25;6.10;;;;;;;-140.66;100.00;55571.53;5119778;28;20035;-77
2023/06/27 05:25:14;;;;;;;10.75;5.45;;;;;;;-140.66;100.00;55571.53;5124137;28;20027;-77
2023/06/27 05:28:00;;;;;;;7.22;5.18;;;;;;;-140.66;100.00;55571.53;5125025;28;20035;-77
2023/06/27 05:30:46;;;;;;;8.68;5.43;;;;;;;-140.66;100.00;55571.53;5123247;28;20035;-77
2023/06/27 05:33:32;;;;;;;10.18;5.50;;;;;;;-140.66;100.00;55571.53;5109815;28;20031;-77
2023/06/27 05:36:18;;;;;;;6.85;5.45;;;;;;;-140.66;100.00;55571.53;5128635;28;20019;-77
2023/06/27 05:39:04;;;;;;;8.20;5.22;;;;;;;-140.66;100.00;55571.53;5109543;28;20104;-77
2023/06/27 05:41:49;;;;;;;10.23;5.80;;;;;;;-140.66;100.00;55571.53;5120020;28;20028;-77
2023/06/27 05:44:35;;;;;;;10.77;5.63;;;;;;;-140.66;100.00;55571.53;5100823;28;20028;-78
2023/06/27 05:47:21;;;;;;;8.27;5.38;;;;;;;-140.66;100.00;55571.53;5115783;28;20027;-78
2023/06/27 05:50:07;;;;;;;11.07;5.20;;;;;;;-140.66;100.00;55571.53;5119013;28;20444;-78
2023/06/27 05:52:52;;;;;;;10.57;5.32;;;;;;;-140.66;100.00;55571.53;5117870;28;20093;-77
2023/06/27 05:55:38;;;;;;;8.93;5.43;;;;;;;-140.66;100.00;55571.53;5116953;28;20047;-78
2023/06/27 05:58:24;;;;;;;6.97;5.18;;;;;;;-140.66;100.00;55571.53;5117144;28;20016;-77
2023/06/27 06:01:10;;;;;;;5.90;5.20;;;;;;;-140.66;100.00;55571.53;5115520;28;20024;-77
2023/06/27 06:03:55;;;;;;;7.32;5.47;;;;;;;-140.66;100.00;55571.53;5114070;28;20080;-78
2023/06/27 06:06:41;;;;;;;7.15;5.22;;;;;;;-140.66;100.00;55571.53;5099989;28;20062;-78
2023/06/27 06:09:27;;;;;;;7.55;5.43;;;;;;;-140.66;100.00;55571.53;5114912;28;20449;-78
2023/06/27 06:12:13;;;;;;;7.07;5.70;;;;;;;-140.66;100.00;55571.53;5114084;28;20044;-77
2023/06/27 06:14:58;;;;;;;8.45;5.53;;;;;;;-140.66;100.00;55571.53;5100241;28;20089;-77
2023/06/27 06:17:44;;;;;;;9.32;5.72;;;;;;;-140.66;100.00;55571.53;5114224;28;20098;-78
2023/06/27 06:20:30;;;;;;;7.78;4.75;;;;;;;-140.66;100.00;55571.53;5098491;28;20053;-77
2023/06/27 06:23:16;;;;;;;10.10;4.80;;;;;;;-140.66;100.00;55571.53;5114192;28;20028;-78
2023/06/27 06:26:01;;;;;;;7.45;5.22;;;;;;;-140.66;100.00;55571.53;5113949;28;20035;-78
2023/06/27 06:28:47;;;;;;;7.28;5.68;;;;;;;-140.66;100.00;55571.53;5115244;28;20042;-77
2023/06/27 06:31:33;;;;;;;6.53;5.88;;;;;;;-140.66;100.00;55571.53;5099760;28;20380;-78
2023/06/27 06:34:19;;;;;;;9.55;5.78;;;;;;;-140.66;100.00;55571.53;5115358;28;20457;-77
2023/06/27 06:37:05;;;;;;;7.22;5.38;;;;;;;-140.66;100.00;55571.53;5103230;28;20028;-76
2023/06/27 06:39:50;;;;;;;10.52;5.55;;;;;;;-140.66;100.00;55571.53;5104591;28;20104;-77
2023/06/27 06:42:36;;;;;;;13.43;5.90;;;;;;;-140.66;100.00;55571.53;5114730;28;20028;-77
2023/06/27 06:45:22;;;;;;;12.20;5.85;;;;;;;-140.66;100.00;55571.53;5114027;28;20020;-77
2023/06/27 06:48:08;;;;;;;6.55;4.85;;;;;;;-140.66;100.00;55571.53;5113623;28;20027;-78
2023/06/27 06:50:53;;;;;;;9.90;5.85;;;;;;;-140.66;100.00;55571.53;5099005;28;20028;-77
2023/06/27 06:53:39;;;;;;;7.30;5.47;;;;;;;-140.66;100.00;55571.53;5113185;28;20035;-77
2023/06/27 06:56:25;;;;;;;10.02;5.30;;;;;;;-140.66;100.00;55571.53;5118135;28;20019;-77
2023/06/27 06:59:10;;;;;;;9.18;5.97;;;;;;;-140.66;100.00;55571.53;5120329;28;20034;-77
2023/06/27 07:01:56;;;;;;;7.00;5.50;;;;;;;-140.66;100.00;55571.53;5118422;28;20024;-77
2023/06/27 07:04:42;;;;;;;6.45;4.90;;;;;;;-140.66;100.00;55571.53;5104096;28;20030;-76
2023/06/27 07:07:29;;;;;;;7.35;5.43;;;;;;;-140.66;100.00;55571.53;5108947;28;20350;-76
2023/06/27 07:10:14;;;;;;;8.43;5.15;;;;;;;-140.66;100.00;55571.53;5102786;28;20024;-77
2023/06/27 07:13:01;;;;;;;7.25;4.88;;;;;;;-140.66;100.00;55571.53;5119057;28;20107;-77
2023/06/27 07:15:46;;;;;;;8.77;5.15;;;;;;;-140.66;100.00;55571.53;5116687;28;20034;-77
2023/06/27 07:18:32;;;;;;;8.90;5.75;;;;;;;-140.66;100.00;55571.53;5117535;28;20516;-76
2023/06/27 07:21:18;;;;;;;15.73;6.20;;;;;;;-140.66;100.00;55571.53;5102075;28;20437;-77
2023/06/27 07:24:05;;;;;;;8.27;5.63;;;;;;;-140.66;100.00;55571.53;5118132;28;20043;-76
2023/06/27 07:26:51;;;;;;;9.70;5.00;;;;;;;-140.66;100.00;55571.53;5118006;28;20039;-78
2023/06/27 07:29:37;;;;;;;8.02;5.38;;;;;;;-140.66;100.00;55571.53;5116747;28;20060;-77
2023/06/27 07:32:23;;;;;;;6.50;5.00;;;;;;;-140.66;100.00;55571.53;5117641;28;20023;-77
2023/06/27 07:35:08;;;;;;;5.30;4.75;;;;;;;-140.66;100.00;55571.53;5117399;28;20449;-76
2023/06/27 07:37:55;;;;;;;6.25;4.88;;;;;;;-140.66;100.00;55571.53;5101986;28;20051;-76
2023/06/27 07:40:40;;;;;;;6.18;4.38;;;;;;;-140.66;100.00;55571.53;5102153;28;20130;-78
2023/06/27 07:43:26;;;;;;;9.65;5.38;;;;;;;-140.66;100.00;55571.53;5102097;28;20095;-77
2023/06/27 07:46:12;;;;;;;6.90;4.53;;;;;;;-140.66;100.00;55571.53;5116923;28;20035;-77
2023/06/27 07:48:59;;;;;;;7.22;5.30;;;;;;;-140.66;100.00;55571.53;5117776;28;20035;-77
2023/06/27 07:51:49;;;;;;;14.60;4.82;;;;;;;-140.66;100.00;55571.53;5117691;28;20345;-76
2023/06/27 07:54:36;;;;;;;6.93;4.55;;;;;;;-140.66;100.00;55571.53;5101625;28;20341;-77
2023/06/27 07:57:21;;;;;;;7.97;4.95;;;;;;;-140.66;100.00;55571.53;5115348;28;20115;-76
2023/06/27 08:00:08;;;;;;;6.13;4.88;;;;;;;-140.66;100.00;55571.53;5116700;28;20020;-76
2023/06/27 08:02:54;;;;;;;7.03;5.07;;;;;;;-140.66;100.00;55571.53;5116129;28;20038;-76
2023/06/27 08:05:39;;;;;;;5.88;4.70;;;;;;;-140.66;100.00;55571.53;5116210;28;20047;-77
2023/06/27 08:08:25;;;;;;;8.70;4.90;;;;;;;-140.66;100.00;55571.53;5116068;28;20377;-77
2023/06/27 08:11:11;;;;;;;8.18;4.78;;;;;;;-140.66;100.00;55571.53;5116002;28;20497;-77
2023/06/27 08:13:57;;;;;;;5.40;4.78;;;;;;;-140.66;100.00;55571.53;5116046;28;20084;-77
2023/06/27 08:16:43;;;;;;;8.05;5.10;;;;;;;-140.66;100.00;55571.53;5101956;28;20031;-77
2023/06/27 08:19:29;;;;;;;5.53;4.90;;;;;;;-140.66;100.00;55571.53;5115964;28;20047;-76
2023/06/27 08:22:14;;;;;;;8.90;4.75;;;;;;;-140.66;100.00;55571.53;5101788;28;20033;-77
2023/06/27 08:25:00;;;;;;;8.77;4.82;;;;;;;-140.66;100.00;55571.53;5115795;28;20028;-78
2023/06/27 08:27:46;;;;;;;6.63;5.18;;;;;;;-140.66;100.00;55571.53;5117416;28;20023;-78
2023/06/27 08:30:31;;;;;;;6.03;4.75;;;;;;;-140.66;100.00;55571.53;5101311;28;20061;-77
2023/06/27 08:33:20;;;;;;;6.60;5.68;;;;;;;-140.66;100.00;55571.53;5115252;28;20067;-77
2023/06/27 08:36:06;;;;;;;6.35;5.05;;;;;;;-140.66;100.00;55571.53;5115310;28;20081;-76
2023/06/27 08:38:52;;;;;;;5.43;4.80;;;;;;;-140.66;100.00;55571.53;5101290;28;20023;-77
2023/06/27 08:41:38;;;;;;;7.05;4.63;;;;;;;-140.66;100.00;55571.53;5116094;28;20441;-77
2023/06/27 08:44:24;;;;;;;5.75;4.00;;;;;;;-140.66;100.00;55571.53;5115042;28;20031;-77
2023/06/27 08:47:12;;;;;;;6.63;4.80;;;;;;;-140.66;100.00;55571.53;5115385;28;20090;-77
2023/06/27 08:50:03;;;;;;;5.15;4.45;;;;;;;-140.66;100.00;55571.53;5115830;28;20055;-76
2023/06/27 08:52:56;;;;;;;9.95;4.82;;;;;;;-140.66;100.00;55571.53;5117281;28;20057;-78
2023/06/27 08:55:48;;;;;;;6.18;4.05;;;;;;;-140.66;100.00;55571.53;5117272;28;20466;-78
2023/06/27 08:58:42;;;;;;;6.60;4.60;;;;;;;-140.66;100.00;55571.53;5116189;28;20106;-77
2023/06/27 09:01:33;;;;;;;7.07;4.68;;;;;;;-140.66;100.00;55571.53;5116777;28;20445;-76
2023/06/27 09:04:19;;;;;;;7.35;4.22;;;;;;;-140.66;100.00;55571.53;5117172;28;20046;-77
2023/06/27 09:07:06;;;;;;;5.13;4.60;;;;;;;-140.66;100.00;55571.53;5115863;28;20020;-77
2023/06/27 09:09:53;;;;;;;5.95;4.60;;;;;;;-140.66;100.00;55571.53;5115024;28;20027;-77
2023/06/27 09:12:41;;;;;;;5.15;4.20;;;;;;;-140.66;100.00;55571.53;5116267;28;20038;-77
2023/06/27 09:15:26;;;;;;;5.88;4.50;;;;;;;-140.66;100.00;55571.53;5101819;28;20015;-77
2023/06/27 09:18:13;;;;;;;4.68;4.18;;;;;;;-140.66;100.00;55571.53;5114165;28;20023;-78
2023/06/27 09:21:01;;;;;;;7.30;4.55;;;;;;;-140.66;100.00;55571.53;5099671;28;20453;-77
2023/06/27 09:23:49;;;;;;;4.85;4.20;;;;;;;-140.66;100.00;55571.53;5115867;28;20027;-78
2023/06/27 09:26:34;;;;;;;6.38;4.40;;;;;;;-140.66;100.00;55571.53;5116394;28;20131;-77
2023/06/27 09:29:20;;;;;;;5.72;4.50;;;;;;;-140.66;100.00;55571.53;5111667;28;20026;-78
2023/06/27 09:32:07;;;;;;;5.72;4.35;;;;;;;-140.66;100.00;55571.53;5116741;28;20468;-78
2023/06/27 09:34:53;;;;;;;6.93;4.57;;;;;;;-140.66;100.00;55571.53;5115492;28;20035;-77
2023/06/27 09:37:39;;;;;;;5.75;4.07;;;;;;;-140.66;100.00;55571.53;5115602;28;20045;-77
2023/06/27 09:40:27;;;;;;;9.52;4.85;;;;;;;-140.66;100.00;55571.53;5114722;28;20035;-77
2023/06/27 09:43:15;;;;;;;5.18;4.03;;;;;;;-140.66;100.00;55571.53;5100243;28;20385;-78
2023/06/27 09:46:03;;;;;;;6.05;4.40;;;;;;;-140.66;100.00;55571.53;5113888;28;20027;-77
2023/06/27 09:48:54;;;;;;;5.75;3.90;;;;;;;-140.66;100.00;55571.53;5114563;28;20439;-77
2023/06/27 09:51:40;;;;;;;5.55;4.47;;;;;;;-140.66;100.00;55571.53;5119227;28;20032;-77
2023/06/27 09:54:26;;;;;;;8.20;4.40;;;;;;;-140.66;100.00;55571.53;5128697;28;20078;-77
2023/06/27 09:57:16;;;;;;;7.10;4.63;;;;;;;-140.66;100.00;55571.53;5114097;28;20125;-77
2023/06/27 10:00:03;;;;;;;10.23;4.47;;;;;;;-140.66;100.00;55571.53;5113530;28;20023;-77
2023/06/27 10:02:51;;;;;;;9.85;4.60;;;;;;;-140.66;100.00;55571.53;5114998;28;20059;-77
2023/06/27 10:05:36;;;;;;;5.28;4.65;;;;;;;-140.66;100.00;55571.53;5113561;28;20023;-77
2023/06/27 10:08:22;;;;;;;5.50;4.50;;;;;;;-140.66;100.00;55571.53;5100537;28;20045;-76
2023/06/27 10:11:08;;;;;;;8.57;4.55;;;;;;;-140.66;100.00;55571.53;5114584;28;20096;-77
2023/06/27 10:13:54;;;;;;;5.63;4.70;;;;;;;-140.66;100.00;55571.53;5099319;28;20047;-77
2023/06/27 10:16:42;;;;;;;6.72;5.05;;;;;;;-140.66;100.00;55571.53;5113439;28;20026;-77
2023/06/27 10:19:31;;;;;;;7.95;5.05;;;;;;;-140.66;100.00;55571.53;5098465;28;20059;-77
2023/06/27 10:22:18;;;;;;;6.10;4.70;;;;;;;-140.66;100.00;55571.53;5113859;28;20114;-77
2023/06/27 10:25:08;;;;;;;5.43;4.57;;;;;;;-140.66;100.00;55571.53;5113732;28;20429;-77
2023/06/27 10:28:07;;;;;;;5.40;4.50;;;;;;;-140.66;100.00;55571.53;5113347;28;20024;-77
2023/06/27 10:30:53;;;;;;;5.65;4.70;;;;;;;-140.66;100.00;55571.53;5113875;28;20427;-77
2023/06/27 10:33:42;;;;;;;5.13;4.63;;;;;;;-140.66;100.00;55571.53;5107319;28;20031;-77
2023/06/27 10:37:01;;;;;;;5.03;4.40;;;;;;;-140.66;100.00;55571.53;5121817;28;20027;-78
2023/06/27 10:40:06;;;;;;;6.72;4.53;;;;;;;-140.66;100.00;55571.53;5120292;28;20031;-78
2023/06/27 10:42:52;;;;;;;6.80;4.65;;;;;;;-140.66;100.00;55571.53;5121286;28;20038;-77
2023/06/27 10:45:38;;;;;;;5.78;4.57;;;;;;;-140.66;100.00;55571.53;5106407;28;20027;-77
2023/06/27 10:48:27;;;;;;;7.47;4.70;;;;;;;-140.66;100.00;55571.53;5121965;28;20035;-77
2023/06/27 10:51:20;;;;;;;8.48;4.97;;;;;;;-140.66;100.00;55571.53;5120199;28;20353;-77
2023/06/27 10:54:08;;;;;;;5.70;4.25;;;;;;;-140.66;100.00;55571.53;5121054;28;20019;-77
2023/06/27 10:56:59;;;;;;;6.80;4.45;;;;;;;-140.66;100.00;55571.53;5121501;28;20015;-77
2023/06/27 10:59:47;;;;;;;7.07;4.70;;;;;;;-140.66;100.00;55571.53;5121284;28;20032;-77
2023/06/27 11:02:34;;;;;;;5.07;4.30;;;;;;;-140.66;100.00;55571.53;5120319;28;20038;-77
2023/06/27 11:05:36;;;;;;;7.90;4.90;;;;;;;-140.66;100.00;55571.53;5105790;28;20346;-76
2023/06/27 11:08:27;;;;;;;7.50;4.35;;;;;;;-140.66;100.00;55571.53;5120350;28;20028;-77
2023/06/27 11:11:13;;;;;;;7.00;4.20;;;;;;;-140.66;100.00;55571.53;5119946;28;20047;-77
2023/06/27 11:14:07;;;;;;;5.10;4.22;;;;;;;-140.66;100.00;55571.53;5120851;28;20024;-77
2023/06/27 11:16:53;;;;;;;6.72;4.10;;;;;;;-140.66;100.00;55571.53;5106207;28;20102;-77
2023/06/27 11:19:40;;;;;;;5.55;4.40;;;;;;;-140.66;100.00;55571.53;5105814;28;20047;-77
2023/06/27 11:22:25;;;;;;;4.88;4.13;;;;;;;-140.66;100.00;55571.53;5106148;28;20445;-77
2023/06/27 11:25:13;;;;;;;4.75;4.25;;;;;;;-140.66;100.00;55571.53;5120944;28;20019;-77
2023/06/27 11:27:59;;;;;;;6.75;4.07;;;;;;;-140.66;100.00;55571.53;5120564;28;20027;-77
2023/06/27 11:30:46;;;;;;;6.03;4.22;;;;;;;-140.66;100.00;55571.53;5121250;28;20361;-77
2023/06/27 11:33:31;;;;;;;4.18;3.80;;;;;;;-140.66;100.00;55571.53;5120105;28;20027;-77
2023/06/27 11:36:21;;;;;;;8.43;4.20;;;;;;;-140.66;100.00;55571.53;5120961;28;20031;-77
2023/06/27 11:39:10;;;;;;;6.55;4.07;;;;;;;-140.66;100.00;55571.53;5120717;28;20498;-77
2023/06/27 11:41:56;;;;;;;6.30;4.10;;;;;;;-140.66;100.00;55571.53;5119472;28;20104;-76
2023/06/27 11:44:41;;;;;;;7.25;4.13;;;;;;;-140.66;100.00;55571.53;5102459;28;20095;-77
2023/06/27 11:47:27;;;;;;;4.95;3.60;;;;;;;-140.66;100.00;55571.53;5117568;28;20024;-77
2023/06/27 11:50:15;;;;;;;7.35;3.92;;;;;;;-140.66;100.00;55571.53;5117337;28;20343;-77
2023/06/27 11:53:00;;;;;;;5.05;3.72;;;;;;;-140.66;100.00;55571.53;5104569;28;20027;-77
2023/06/27 11:55:46;;;;;;;6.00;3.85;;;;;;;-140.66;100.00;55571.53;5103445;28;20169;-76
2023/06/27 11:58:34;;;;;;;8.93;4.00;;;;;;;-140.66;100.00;55571.53;5116405;28;20461;-76
2023/06/27 12:01:24;;;;;;;10.25;3.60;;;;;;;-140.66;100.00;55571.53;5116471;28;20027;-77
2023/06/27 12:04:13;;;;;;;6.25;3.63;;;;;;;-140.66;100.00;55571.53;5113402;27;20122;-78
2023/06/27 12:07:16;;;;;;;5.47;3.80;;;;;;;-140.66;100.00;55571.53;5115418;28;20319;-77
2023/06/27 12:10:06;;;;;;;4.93;3.75;;;;;;;-140.66;100.00;55571.53;5117076;28;20032;-76
2023/06/27 12:12:52;;;;;;;5.25;3.85;;;;;;;-140.66;100.00;55571.53;5117433;28;20115;-76
2023/06/27 12:15:45;;;;;;;5.80;3.78;;;;;;;-140.66;100.00;55571.53;5102543;28;20505;-77
2023/06/27 12:18:32;;;;;;;4.82;3.55;;;;;;;-140.66;100.00;55571.53;5116520;27;20192;-77
2023/06/27 12:21:18;;;;;;;4.65;3.50;;;;;;;-140.66;100.00;55571.53;5116687;28;20191;-77
2023/06/27 12:24:04;;;;;;;6.60;3.90;;;;;;;-140.66;100.00;55571.53;5116102;28;20024;-76
2023/06/27 12:26:50;;;;;;;4.72;3.70;;;;;;;-140.66;100.00;55571.53;5115984;28;20111;-76
2023/06/27 12:29:36;;;;;;;9.27;4.15;;;;;;;-140.66;100.00;55571.53;5100961;28;20098;-77
2023/06/27 12:32:21;;;;;;;5.10;3.58;;;;;;;-140.66;100.00;55571.53;5116333;28;20030;-75
2023/06/27 12:35:07;;;;;;;7.63;3.83;;;;;;;-140.66;100.00;55571.53;5100791;28;20051;-74
2023/06/27 12:37:54;;;;;;;5.65;3.88;;;;;;;-140.66;100.00;55571.53;5115296;28;20034;-76